BVLO2: Caney River, Bartlesville, OK

                                SHEF ID:       BVLO2     Caney River above Coon Creek at
STATION TYPE:
Regulating: Stage = 13.00, Flow = 14009

PRECIP STAGE STAGE(2) RIV-FLOW BAT-LOAD
in ft ft cfs volt
Ccp-Rev Ccp-Rev Ccp-Rev Ccp-Rev Ccp-Rev
(America/Chicago)
04/25 00:00 0.00 4.47 ---- 1223 12.73
04/25 01:00 0.00 4.44 ---- 1178 12.65
04/25 02:00 0.00 4.42 ---- 1148 12.65
04/25 03:00 0.00 4.40 ---- 1119 12.65
04/25 04:00 0.00 4.38 ---- 1088 12.65
04/25 05:00 0.00 4.37 ---- 1073 12.65
04/25 06:00 0.00 4.36 ---- 1057 12.65
04/25 07:00 0.00 4.35 ---- 1042 12.57
04/25 08:00 0.00 4.34 ---- 1027 12.57
04/25 09:00 0.00 4.33 ---- 1013 12.89
04/25 10:00 0.00 4.31 ---- 983 13.76
04/25 11:00 0.00 4.29 ---- 955 13.60
04/25 12:00 0.00 4.27 ---- 926 13.44
04/25 13:00 0.00 4.28 ---- 940 13.29
04/25 14:00 0.00 4.27 ---- 926 13.37
04/25 15:00 0.00 4.27 ---- 926 13.37
04/25 16:00 0.00 4.31 ---- 983 13.29
04/25 17:00 0.00 4.31 ---- 983 13.29
04/25 18:00 0.00 4.31 ---- 983 13.05
04/25 19:00 0.00 4.31 ---- 983 13.05
04/25 20:00 0.00 4.32 ---- 998 12.89
04/25 21:00 0.00 4.32 ---- 998 12.73
04/25 22:00 0.00 4.29 ---- 955 12.73
04/25 23:00 ---- ---- ---- ---- ----
Data processed at Sun 26Apr2026 04:14 GMT

NOTICE: If you are parsing this page

Please convert to using our Data API. Starting early 2026 we will be migrating to: https://water.usace.army.mil with modern pages rendered in JavaScript. When this migration completes you will no longer be able to scrape this page! CWMSDataAPI (CDA)

Timeseries IDs (TSIDs)

TSIDs used from left to right in the data table
BART.Precip-Inc.Total.1Hour.1Hour.Ccp-Rev
BART.Stage.Inst.1Hour.0.Ccp-Rev
BART.Stage-Alt.Inst.1Hour.0.Ccp-Rev
BART.Flow.Inst.1Hour.0.Ccp-Rev
BART.Volt-Battery Load.Inst.1Hour.0.Ccp-Rev

                            

All information presented herein is the property of the government of the United States of America and may be revised or deleted at any time without prior notice. Dissemination of this information without the expressed written consent of the Public Affairs Office, Tulsa District U.S. Army Corps of Engineers is strictly prohibited. These data are gathered electronically and, as presented, have NOT undergone any form of quality control. These data are NOT guaranteed to be valid or correct.